Cedar Lake, Texas
Current Conditions -  °F | °C
As of 6:53 AM on Thursday 18 Dec 2014 (Local Time) from KLBX Reporting Station
Overcast Overcast  
Wind Chill: 17°   Ceiling: 3600
Heat Index: 17°   Visibility: 7mi
Dew Point: 17°   Wind: 3mph
Humidity: 100%   Direction: 340°NNW
Pressure: 30.06"   Gusts: NA
Location:  28.8997°N, 95.7887°W
Report Text: KLBX 181253Z AUTO 34003KT 7SM BKN036 BKN047 OVC060 17/17 A3006 RMK AO2 SLP177 T01720172
Loading
Personal Weather Stations






























Interactive Weather Map New forecast layout! Learn more

10-Day Weather Forecast

Advertisements
Track Severe Weather on mobile